createdAt,value
2023-04-27T00:00:32.419Z,9.04
2023-04-27T00:03:05.958Z,9.01
2023-04-27T00:05:41.084Z,9.04
2023-04-27T00:10:46.161Z,9.05
2023-04-27T00:13:15.618Z,9.03
2023-04-27T00:15:45.114Z,9.14
2023-04-27T00:18:16.314Z,9.35
2023-04-27T00:20:45.675Z,9.34
2023-04-27T00:23:20.800Z,9.24
2023-04-27T00:25:50.201Z,9.13
2023-04-27T00:28:19.392Z,9.04
2023-04-27T00:30:54.879Z,9.03
2023-04-27T00:33:26.016Z,9.03
2023-04-27T00:36:04.404Z,8.92
2023-04-27T00:38:33.727Z,9.19
2023-04-27T00:41:04.027Z,9.38
2023-04-27T00:43:39.994Z,9.56
2023-04-27T00:46:09.526Z,9.76
2023-04-27T00:48:41.240Z,9.91
2023-04-27T00:51:10.275Z,10.08
2023-04-27T00:53:40.277Z,10.21
2023-04-27T00:56:23.259Z,10.23
2023-04-27T00:58:52.542Z,10.24
2023-04-27T01:01:22.863Z,10.19
2023-04-27T01:04:00.526Z,10.11
2023-04-27T01:06:31.582Z,10.09
2023-04-27T01:09:05.888Z,10.08
2023-04-27T01:11:40.542Z,10.02
2023-04-27T01:14:10.124Z,9.88
2023-04-27T01:16:40.256Z,10.04
2023-04-27T01:19:21.651Z,9.88
2023-04-27T01:21:53.967Z,9.79
2023-04-27T01:24:35.257Z,9.77
2023-04-27T01:27:07.407Z,9.62
2023-04-27T01:29:36.727Z,9.55
2023-04-27T01:32:07.130Z,9.44
2023-04-27T01:34:42.016Z,9.38
2023-04-27T01:37:11.228Z,9.32
2023-04-27T01:39:43.139Z,9.36
2023-04-27T01:42:12.420Z,9.34
2023-04-27T01:44:43.350Z,9.29
2023-04-27T01:47:12.710Z,9.20
2023-04-27T01:49:42.855Z,9.40
2023-04-27T01:52:12.380Z,9.52
2023-04-27T01:54:43.606Z,9.69
2023-04-27T01:57:13.952Z,9.74
2023-04-27T01:59:43.229Z,9.86
2023-04-27T02:02:12.980Z,10.01
2023-04-27T02:04:42.883Z,10.05
2023-04-27T02:07:12.265Z,10.14
2023-04-27T02:09:43.829Z,10.20
2023-04-27T02:12:16.492Z,10.17
2023-04-27T02:14:45.880Z,10.31
2023-04-27T02:17:15.230Z,10.20
2023-04-27T02:19:44.714Z,10.07
2023-04-27T02:22:13.994Z,10.04
2023-04-27T02:24:45.402Z,10.10
2023-04-27T02:27:14.796Z,10.20
2023-04-27T02:29:44.856Z,10.13
2023-04-27T02:32:14.618Z,10.28
2023-04-27T02:34:44.560Z,10.06
2023-04-27T02:37:18.822Z,10.18
2023-04-27T02:39:51.454Z,10.18
2023-04-27T02:42:21.105Z,10.22
2023-04-27T02:44:50.309Z,10.26
2023-04-27T02:47:21.534Z,10.27
2023-04-27T02:49:50.971Z,10.24
2023-04-27T02:52:20.299Z,10.22
2023-04-27T02:54:51.768Z,10.22
2023-04-27T02:57:21.231Z,10.25
2023-04-27T02:59:50.801Z,10.22
2023-04-27T03:02:20.254Z,10.27
2023-04-27T03:04:49.599Z,10.24
2023-04-27T03:07:18.936Z,10.21
2023-04-27T03:09:48.362Z,10.25
2023-04-27T03:12:19.650Z,10.29
2023-04-27T03:15:00.695Z,10.33
2023-04-27T03:17:30.365Z,10.38
2023-04-27T03:19:59.833Z,10.42
2023-04-27T03:22:34.357Z,10.52
2023-04-27T03:25:05.240Z,10.54
2023-04-27T03:27:36.849Z,10.66
2023-04-27T03:30:07.237Z,10.65
2023-04-27T03:32:36.546Z,10.83
2023-04-27T03:35:06.465Z,10.84
2023-04-27T03:37:36.071Z,10.87
2023-04-27T03:40:07.295Z,10.93
2023-04-27T03:42:41.386Z,11.04
2023-04-27T03:45:13.165Z,11.18
2023-04-27T03:47:53.978Z,11.39
2023-04-27T03:50:23.485Z,11.52
2023-04-27T03:52:52.662Z,11.49
2023-04-27T03:55:22.453Z,11.45
2023-04-27T03:57:59.774Z,11.61
2023-04-27T04:00:29.442Z,11.85
2023-04-27T04:02:58.895Z,12.15
2023-04-27T04:05:28.417Z,12.46
2023-04-27T04:07:57.728Z,12.70
2023-04-27T04:10:34.378Z,12.88
2023-04-27T04:13:05.850Z,13.05
2023-04-27T04:15:35.302Z,13.36
2023-04-27T04:18:05.933Z,13.68
2023-04-27T04:20:40.726Z,13.74
2023-04-27T04:23:10.417Z,13.72
2023-04-27T04:25:39.956Z,13.72
2023-04-27T04:28:11.854Z,13.78
2023-04-27T04:30:41.098Z,13.96
2023-04-27T04:33:10.517Z,13.99
2023-04-27T04:35:41.136Z,14.03
2023-04-27T04:38:11.421Z,14.02
2023-04-27T04:40:43.861Z,14.07
2023-04-27T04:43:17.213Z,14.02
2023-04-27T04:45:46.905Z,14.04
2023-04-27T04:48:21.916Z,14.13
2023-04-27T04:50:51.667Z,14.19
2023-04-27T04:53:21.138Z,14.25
2023-04-27T04:55:50.671Z,14.23
2023-04-27T04:58:21.954Z,14.33
2023-04-27T05:00:51.235Z,14.36
2023-04-27T05:03:21.157Z,14.43
2023-04-27T05:05:55.901Z,14.47
2023-04-27T05:08:35.547Z,14.44
2023-04-27T05:13:42.168Z,14.55
2023-04-27T05:16:16.519Z,14.62
2023-04-27T05:18:45.781Z,14.63
2023-04-27T05:24:02.369Z,14.70
2023-04-27T05:26:34.200Z,14.76
2023-04-27T05:29:12.059Z,14.80
2023-04-27T05:31:41.559Z,14.82
2023-04-27T05:34:11.276Z,14.79
2023-04-27T05:36:40.730Z,14.84
2023-04-27T05:39:10.381Z,14.77
2023-04-27T05:41:39.666Z,14.81
2023-04-27T05:44:14.286Z,14.97
2023-04-27T05:46:45.642Z,14.98
2023-04-27T05:49:15.205Z,15.03
2023-04-27T05:51:44.732Z,15.08
2023-04-27T05:54:20.621Z,15.16
2023-04-27T05:56:54.955Z,15.23
2023-04-27T05:59:24.417Z,15.26
2023-04-27T06:01:56.694Z,15.31
2023-04-27T06:04:26.288Z,15.36
2023-04-27T06:06:56.010Z,15.43
2023-04-27T06:09:25.331Z,15.44
2023-04-27T06:11:54.590Z,15.47
2023-04-27T06:14:24.185Z,15.49
2023-04-27T06:16:55.590Z,15.46
2023-04-27T06:19:25.187Z,15.55
2023-04-27T06:21:55.536Z,15.58
2023-04-27T06:24:25.148Z,15.59
2023-04-27T06:26:54.503Z,15.61
2023-04-27T06:29:23.809Z,15.72
2023-04-27T06:31:55.325Z,15.77
2023-04-27T06:34:24.640Z,15.82
2023-04-27T06:36:53.875Z,15.88
2023-04-27T06:39:28.226Z,15.94
2023-04-27T06:41:58.123Z,16.00
2023-04-27T06:44:30.338Z,16.06
2023-04-27T06:47:01.213Z,16.24
2023-04-27T06:49:35.747Z,16.22
2023-04-27T06:52:05.500Z,16.28
2023-04-27T06:54:35.019Z,16.35
2023-04-27T06:57:04.555Z,16.37
2023-04-27T06:59:33.949Z,16.49
2023-04-27T07:02:06.027Z,16.51
2023-04-27T07:04:41.245Z,16.56
2023-04-27T07:07:15.535Z,16.57
2023-04-27T07:09:45.037Z,16.63
2023-04-27T07:12:25.462Z,16.71
2023-04-27T07:14:55.059Z,16.68
2023-04-27T07:20:01.660Z,16.75
2023-04-27T07:22:33.977Z,16.85
2023-04-27T07:25:16.367Z,16.86
2023-04-27T07:27:46.492Z,16.99
2023-04-27T07:30:36.672Z,17.01
2023-04-27T07:33:08.378Z,17.11
2023-04-27T07:35:37.642Z,17.28
2023-04-27T07:38:08.314Z,17.26
2023-04-27T07:40:38.254Z,17.26
2023-04-27T07:45:45.521Z,17.27
2023-04-27T07:48:16.926Z,17.41
2023-04-27T07:50:51.254Z,17.53
2023-04-27T07:53:20.585Z,17.62
2023-04-27T07:55:49.855Z,17.64
2023-04-27T07:58:19.597Z,17.68
2023-04-27T08:00:48.889Z,17.73
2023-04-27T08:03:20.302Z,17.76
2023-04-27T08:05:59.063Z,17.80
2023-04-27T08:08:33.621Z,17.82
2023-04-27T08:11:03.006Z,17.73
2023-04-27T08:13:32.617Z,17.87
2023-04-27T08:16:02.111Z,17.91
2023-04-27T08:18:59.900Z,17.88
2023-04-27T08:21:40.583Z,17.91
2023-04-27T08:24:09.864Z,17.92
2023-04-27T08:26:39.495Z,17.99
2023-04-27T08:29:19.502Z,18.05
2023-04-27T08:31:55.704Z,18.09
2023-04-27T08:37:04.050Z,18.22
2023-04-27T08:39:33.385Z,18.13
2023-04-27T08:42:13.788Z,18.33
2023-04-27T08:44:43.694Z,18.32
2023-04-27T08:47:13.685Z,18.23
2023-04-27T08:49:45.431Z,18.29
2023-04-27T08:52:15.986Z,18.43
2023-04-27T08:54:46.054Z,18.49
2023-04-27T08:57:16.596Z,18.57
2023-04-27T08:59:46.593Z,18.62
2023-04-27T09:02:26.893Z,18.73
2023-04-27T09:04:58.380Z,18.83
2023-04-27T09:07:28.620Z,18.89
2023-04-27T09:10:05.543Z,18.96
2023-04-27T09:12:34.911Z,18.96
2023-04-27T09:15:06.374Z,18.91
2023-04-27T09:17:38.498Z,18.92
2023-04-27T09:20:21.168Z,19.02
2023-04-27T09:22:52.435Z,19.12
2023-04-27T09:25:26.170Z,19.14
2023-04-27T09:28:01.972Z,19.13
2023-04-27T09:30:33.077Z,19.06
2023-04-27T09:33:03.874Z,19.02
2023-04-27T09:35:35.582Z,18.97
2023-04-27T09:38:04.964Z,19.01
2023-04-27T09:40:34.827Z,18.99
2023-04-27T09:43:11.459Z,19.04
2023-04-27T09:45:41.009Z,18.96
2023-04-27T09:48:10.905Z,19.21
2023-04-27T09:50:48.177Z,19.22
2023-04-27T09:53:20.353Z,19.32
2023-04-27T09:55:58.772Z,19.30
2023-04-27T09:58:44.833Z,19.34
2023-04-27T10:01:24.367Z,19.46
2023-04-27T10:04:07.791Z,19.63
2023-04-27T10:07:04.513Z,19.74
2023-04-27T10:09:38.692Z,19.98
2023-04-27T10:12:22.360Z,20.27
2023-04-27T10:14:58.268Z,20.29
2023-04-27T10:17:40.687Z,20.40
2023-04-27T10:20:11.237Z,20.54
2023-04-27T10:22:44.333Z,20.66
2023-04-27T10:25:21.329Z,20.70
2023-04-27T10:27:55.844Z,20.65
2023-04-27T10:30:33.144Z,20.87
2023-04-27T10:33:12.345Z,21.27
2023-04-27T10:35:44.275Z,21.43
2023-04-27T10:38:23.454Z,21.11
2023-04-27T10:41:01.148Z,21.33
2023-04-27T10:43:33.015Z,21.47
2023-04-27T10:46:27.012Z,21.78
2023-04-27T10:52:00.496Z,21.66
2023-04-27T10:54:39.297Z,21.41
2023-04-27T10:57:09.459Z,21.03
2023-04-27T10:59:51.723Z,20.70
2023-04-27T11:02:32.714Z,20.28
2023-04-27T11:07:42.081Z,19.60
2023-04-27T11:10:17.755Z,19.47
2023-04-27T11:15:22.102Z,19.07
2023-04-27T11:17:51.717Z,18.62
2023-04-27T11:20:26.822Z,18.38
2023-04-27T11:22:56.396Z,18.12
2023-04-27T11:25:32.073Z,17.82
2023-04-27T11:28:01.380Z,17.52
2023-04-27T11:30:31.139Z,17.17
2023-04-27T11:33:00.670Z,17.12
2023-04-27T11:35:36.241Z,17.27
2023-04-27T11:38:06.035Z,17.91
2023-04-27T11:40:40.777Z,18.65
2023-04-27T11:43:20.890Z,19.45
2023-04-27T11:45:50.079Z,20.31
2023-04-27T11:48:19.443Z,21.00
2023-04-27T11:50:53.850Z,21.48
2023-04-27T11:53:34.287Z,21.52
2023-04-27T11:56:07.557Z,21.43
2023-04-27T11:58:38.085Z,20.94
2023-04-27T12:01:27.652Z,20.56
2023-04-27T12:04:04.644Z,20.30
2023-04-27T12:06:39.221Z,19.72
2023-04-27T12:09:08.563Z,19.52
2023-04-27T12:12:00.993Z,19.40
2023-04-27T12:14:30.421Z,19.25
2023-04-27T12:17:12.730Z,19.10
2023-04-27T12:19:42.129Z,18.96
2023-04-27T12:22:11.668Z,18.72
2023-04-27T12:24:55.914Z,18.80
2023-04-27T12:27:28.189Z,18.77
2023-04-27T12:30:04.102Z,18.75
2023-04-27T12:32:35.673Z,18.74
2023-04-27T12:35:16.254Z,18.70
2023-04-27T12:37:47.974Z,18.72
2023-04-27T12:40:22.941Z,18.75
2023-04-27T12:42:54.414Z,18.77
2023-04-27T12:51:53.796Z,18.39
2023-04-27T12:54:23.099Z,18.46
2023-04-27T12:56:52.341Z,18.49
2023-04-27T12:59:21.775Z,18.50
2023-04-27T13:01:56.640Z,18.54
2023-04-27T13:04:26.557Z,18.60
2023-04-27T13:06:59.664Z,18.64
2023-04-27T13:09:42.359Z,18.67
2023-04-27T13:12:13.620Z,18.72
2023-04-27T13:14:45.700Z,18.72
2023-04-27T13:17:20.033Z,18.76
2023-04-27T13:20:19.692Z,18.72
2023-04-27T13:22:51.397Z,18.72
2023-04-27T13:25:20.472Z,18.90
2023-04-27T13:27:49.860Z,18.96
2023-04-27T13:30:19.297Z,18.97
2023-04-27T13:32:48.660Z,19.00
2023-04-27T13:35:32.962Z,19.02
2023-04-27T13:38:04.523Z,19.01
2023-04-27T13:40:40.588Z,19.01
2023-04-27T13:43:10.129Z,18.85
2023-04-27T13:45:39.436Z,18.99
2023-04-27T13:48:09.304Z,19.01
2023-04-27T13:50:38.940Z,19.11
2023-04-27T13:53:11.540Z,19.13
2023-04-27T13:58:16.138Z,19.08
2023-04-27T14:01:05.432Z,19.06
2023-04-27T14:03:35.899Z,18.98
2023-04-27T14:06:12.037Z,19.01
2023-04-27T14:08:43.361Z,19.02
2023-04-27T14:11:14.238Z,19.03
2023-04-27T14:13:43.645Z,18.96
2023-04-27T14:16:13.357Z,18.94
2023-04-27T14:18:47.678Z,18.75
2023-04-27T14:21:16.965Z,18.87
2023-04-27T14:23:48.344Z,18.83
2023-04-27T14:26:17.675Z,19.00
2023-04-27T14:29:10.947Z,19.07
2023-04-27T14:31:40.651Z,19.16
2023-04-27T14:34:10.620Z,19.21
2023-04-27T14:36:45.136Z,19.27
2023-04-27T14:39:16.687Z,19.25
2023-04-27T14:41:51.261Z,19.30
2023-04-27T14:44:20.512Z,19.21
2023-04-27T14:46:50.066Z,19.12
2023-04-27T14:49:20.140Z,19.06
2023-04-27T14:51:49.487Z,18.98
2023-04-27T14:54:25.774Z,18.93
2023-04-27T14:57:08.035Z,18.88
2023-04-27T14:59:37.420Z,18.83
2023-04-27T15:02:07.231Z,18.79
2023-04-27T15:04:47.554Z,18.77
2023-04-27T15:07:16.978Z,18.74
2023-04-27T15:10:15.989Z,18.73
2023-04-27T15:12:45.314Z,18.66
2023-04-27T15:15:14.866Z,18.63
2023-04-27T15:17:49.324Z,18.64
2023-04-27T15:20:19.041Z,18.68
2023-04-27T15:22:48.498Z,18.64
2023-04-27T15:25:20.028Z,18.64
2023-04-27T15:27:49.277Z,18.70
2023-04-27T15:30:18.384Z,18.57
2023-04-27T15:32:47.924Z,18.44
2023-04-27T15:35:17.371Z,18.42
2023-04-27T15:37:46.790Z,18.43
2023-04-27T15:40:16.731Z,18.41
2023-04-27T15:42:48.746Z,18.35
2023-04-27T15:45:23.553Z,18.24
2023-04-27T15:47:52.849Z,18.16
2023-04-27T15:50:22.532Z,18.15
2023-04-27T15:52:52.356Z,18.09
2023-04-27T15:55:21.992Z,17.91
2023-04-27T15:58:03.496Z,18.25
2023-04-27T16:00:38.099Z,18.50
2023-04-27T16:03:11.149Z,18.71
2023-04-27T16:06:02.067Z,18.86
2023-04-27T16:08:37.113Z,18.93
2023-04-27T16:11:06.781Z,19.04
2023-04-27T16:13:38.005Z,19.08
2023-04-27T16:16:08.962Z,19.03
2023-04-27T16:18:38.510Z,18.73
2023-04-27T16:21:08.142Z,18.51
2023-04-27T16:23:37.417Z,18.22
2023-04-27T16:26:06.713Z,17.89
2023-04-27T16:31:07.505Z,17.32
2023-04-27T16:33:36.863Z,17.04
2023-04-27T16:36:06.745Z,16.86
2023-04-27T16:38:37.823Z,16.68
2023-04-27T16:41:08.821Z,16.50
2023-04-27T16:43:40.063Z,16.16
2023-04-27T16:46:12.731Z,16.29
2023-04-27T16:48:42.820Z,16.16
2023-04-27T16:51:22.943Z,16.03
2023-04-27T16:53:52.781Z,15.91
2023-04-27T16:56:28.840Z,15.71
2023-04-27T16:59:11.323Z,15.77
2023-04-27T17:01:40.737Z,15.71
2023-04-27T17:04:10.405Z,15.68
2023-04-27T17:06:45.330Z,15.59
2023-04-27T17:09:15.032Z,15.53
2023-04-27T17:11:44.768Z,15.44
2023-04-27T17:14:29.395Z,15.28
2023-04-27T17:16:59.754Z,15.23
2023-04-27T17:19:29.057Z,15.14
2023-04-27T17:21:58.428Z,15.01
2023-04-27T17:24:27.699Z,15.09
2023-04-27T17:26:57.197Z,15.12
2023-04-27T17:29:28.485Z,15.12
2023-04-27T17:31:57.889Z,15.22
2023-04-27T17:34:27.265Z,15.13
2023-04-27T17:36:56.594Z,15.07
2023-04-27T17:39:30.760Z,14.77
2023-04-27T17:42:06.549Z,14.91
2023-04-27T17:44:39.049Z,14.80
2023-04-27T17:47:08.512Z,14.71
2023-04-27T17:49:38.034Z,14.70
2023-04-27T17:52:07.842Z,14.64
2023-04-27T17:54:37.241Z,14.63
2023-04-27T17:57:06.576Z,14.58
2023-04-27T17:59:37.824Z,14.42
2023-04-27T18:02:07.248Z,14.42
2023-04-27T18:04:36.633Z,14.36
2023-04-27T18:07:07.833Z,14.29
2023-04-27T18:09:37.305Z,14.23
2023-04-27T18:12:15.495Z,14.16
2023-04-27T18:14:46.749Z,14.07
2023-04-27T18:17:16.197Z,14.03
2023-04-27T18:19:45.763Z,14.03
2023-04-27T18:22:15.264Z,14.02
2023-04-27T18:24:44.647Z,13.95
2023-04-27T18:27:16.246Z,13.95
2023-04-27T18:29:47.603Z,13.91
2023-04-27T18:32:16.976Z,13.85
2023-04-27T18:34:46.284Z,13.76
2023-04-27T18:37:20.696Z,13.74
2023-04-27T18:39:52.787Z,13.85
2023-04-27T18:42:23.110Z,13.85
2023-04-27T18:44:59.823Z,13.84
2023-04-27T18:50:21.690Z,14.04
2023-04-27T18:52:50.986Z,14.02
2023-04-27T18:55:20.522Z,13.98
2023-04-27T18:57:49.862Z,14.02
2023-04-27T19:00:21.720Z,13.90
2023-04-27T19:02:57.713Z,13.93
2023-04-27T19:05:27.246Z,13.86
2023-04-27T19:07:56.728Z,13.81
2023-04-27T19:10:31.176Z,13.81
2023-04-27T19:13:00.356Z,13.85
2023-04-27T19:15:31.669Z,13.78
2023-04-27T19:18:16.988Z,13.74
2023-04-27T19:21:01.265Z,13.77
2023-04-27T19:23:30.685Z,13.71
2023-04-27T19:26:09.677Z,13.68
2023-04-27T19:28:42.573Z,13.59
2023-04-27T19:31:25.882Z,13.62
2023-04-27T19:34:03.633Z,13.63
2023-04-27T19:36:33.300Z,13.61
2023-04-27T19:39:02.783Z,13.61
2023-04-27T19:41:37.069Z,13.61
2023-04-27T19:44:25.220Z,13.58
2023-04-27T19:46:56.414Z,13.49
2023-04-27T19:49:51.868Z,13.51
2023-04-27T19:52:21.259Z,13.43
2023-04-27T19:57:43.779Z,13.26
2023-04-27T20:00:19.691Z,13.23
2023-04-27T20:02:53.014Z,13.20
2023-04-27T20:05:22.953Z,13.11
2023-04-27T20:07:52.336Z,13.02
2023-04-27T20:10:21.762Z,12.97
2023-04-27T20:12:56.557Z,12.93
2023-04-27T20:15:26.630Z,12.93
2023-04-27T20:17:57.971Z,12.91
2023-04-27T20:20:27.627Z,12.89
2023-04-27T20:23:07.007Z,12.91
2023-04-27T20:25:36.280Z,12.88
2023-04-27T20:28:05.797Z,12.82
2023-04-27T20:30:40.403Z,12.64
2023-04-27T20:33:12.353Z,12.66
2023-04-27T20:35:54.418Z,12.67
2023-04-27T20:38:25.179Z,12.67
2023-04-27T20:40:58.179Z,12.63
2023-04-27T20:43:27.522Z,12.76
2023-04-27T20:45:56.935Z,12.75
2023-04-27T20:48:29.525Z,12.75
2023-04-27T20:50:58.958Z,12.83
2023-04-27T20:53:28.754Z,12.60
2023-04-27T20:56:03.549Z,12.81
2023-04-27T20:58:32.894Z,12.82
2023-04-27T21:01:02.544Z,12.82
2023-04-27T21:03:41.285Z,12.85
2023-04-27T21:06:15.787Z,12.85
2023-04-27T21:08:45.644Z,12.74
2023-04-27T21:11:17.366Z,12.64
2023-04-27T21:13:51.673Z,12.61
2023-04-27T21:16:23.866Z,12.56
2023-04-27T21:18:55.366Z,12.33
2023-04-27T21:21:26.097Z,12.34
2023-04-27T21:24:06.640Z,12.35
2023-04-27T21:26:43.003Z,12.28
2023-04-27T21:29:12.303Z,12.19
2023-04-27T21:31:41.893Z,12.14
2023-04-27T21:36:42.561Z,12.02
2023-04-27T21:39:11.880Z,11.88
2023-04-27T21:41:41.258Z,11.94
2023-04-27T21:44:10.656Z,11.89
2023-04-27T21:46:40.225Z,11.89
2023-04-27T21:49:09.823Z,11.95
2023-04-27T21:51:46.153Z,11.97
2023-04-27T21:54:15.895Z,11.92
2023-04-27T21:56:45.369Z,11.82
2023-04-27T21:59:20.272Z,11.79
2023-04-27T22:01:55.069Z,11.76
2023-04-27T22:04:24.918Z,11.67
2023-04-27T22:06:57.517Z,11.62
2023-04-27T22:09:26.975Z,11.56
2023-04-27T22:11:56.230Z,11.45
2023-04-27T22:14:25.609Z,11.32
2023-04-27T22:19:35.757Z,11.26
2023-04-27T22:22:12.749Z,11.28
2023-04-27T22:24:42.196Z,11.18
2023-04-27T22:27:17.690Z,11.17
2023-04-27T22:29:47.169Z,10.93
2023-04-27T22:32:18.145Z,11.02
2023-04-27T22:34:47.872Z,10.99
2023-04-27T22:37:19.207Z,10.99
2023-04-27T22:39:53.764Z,11.01
2023-04-27T22:42:23.153Z,11.03
2023-04-27T22:44:53.451Z,10.99
2023-04-27T22:47:23.055Z,10.96
2023-04-27T22:49:58.894Z,11.01
2023-04-27T22:52:36.968Z,11.04
2023-04-27T22:55:07.799Z,11.04
2023-04-27T22:57:44.081Z,10.79
2023-04-27T23:00:14.899Z,10.87
2023-04-27T23:02:44.533Z,10.77
2023-04-27T23:05:14.267Z,10.55
2023-04-27T23:07:52.457Z,10.60
2023-04-27T23:10:22.288Z,10.59
2023-04-27T23:12:54.451Z,10.61
2023-04-27T23:15:24.335Z,10.64
2023-04-27T23:17:53.751Z,10.65
2023-04-27T23:23:03.220Z,10.61
2023-04-27T23:25:34.777Z,10.60
2023-04-27T23:28:09.929Z,10.56
2023-04-27T23:30:39.311Z,10.56
2023-04-27T23:33:09.951Z,10.42
2023-04-27T23:35:46.138Z,10.52
2023-04-27T23:38:22.593Z,10.46
2023-04-27T23:40:58.441Z,10.42
2023-04-27T23:43:27.945Z,10.45
2023-04-27T23:46:02.428Z,10.40
2023-04-27T23:48:32.101Z,10.36
2023-04-27T23:51:02.350Z,10.32
2023-04-27T23:53:33.774Z,10.31
2023-04-27T23:56:16.970Z,10.27
2023-04-27T23:58:46.409Z,10.16
